Time;durP1;ratioP1;P1;durP2;ratioP2;P2;SDS_P1;SDS_P2;PMS_P1;PMS_P2;Temp;Humidity;BMP_temperature;BMP_pressure;BME280_temperature;BME280_humidity;BME280_pressure;Samples;Min_cycle;Max_cycle;Signal;HPM_P1;HPM_P2
2021/05/25 00:00:11;;;;;;;3.28;3.03;;;28.80;56.70;;;;;;5094635;28;20044;-40
2021/05/25 00:02:37;;;;;;;3.60;3.25;;;28.80;56.70;;;;;;5104982;28;20024;-40
2021/05/25 00:05:04;;;;;;;3.50;3.20;;;28.80;56.80;;;;;;5104914;28;20038;-40
2021/05/25 00:07:30;;;;;;;;;;;28.80;56.80;;;;;;5105900;28;20178;-40
2021/05/25 00:09:56;;;;;;;3.60;3.30;;;28.70;56.80;;;;;;5102488;28;20325;-40
2021/05/25 00:12:22;;;;;;;3.90;3.60;;;28.70;56.80;;;;;;5105231;28;20754;-39
2021/05/25 00:14:49;;;;;;;4.03;3.63;;;28.80;56.90;;;;;;5105102;28;20032;-40
2021/05/25 00:17:15;;;;;;;3.63;3.33;;;28.70;56.90;;;;;;5103850;28;20032;-42
2021/05/25 00:19:41;;;;;;;3.77;3.47;;;28.70;56.90;;;;;;5104937;28;20030;-42
2021/05/25 00:22:07;;;;;;;3.70;3.40;;;28.70;57.00;;;;;;5104959;28;20032;-40
2021/05/25 00:24:34;;;;;;;3.73;3.43;;;28.70;56.90;;;;;;5104710;28;20308;-39
2021/05/25 00:27:00;;;;;;;3.75;3.45;;;28.70;57.00;;;;;;5103421;28;20027;-40
2021/05/25 00:29:26;;;;;;;4.77;3.63;;;28.70;57.00;;;;;;5105071;28;20035;-40
2021/05/25 00:31:52;;;;;;;3.73;3.43;;;28.70;57.00;;;;;;5104954;28;20024;-40
2021/05/25 00:34:18;;;;;;;3.72;3.42;;;28.60;57.00;;;;;;5104409;28;20053;-40
2021/05/25 00:36:45;;;;;;;4.10;3.80;;;28.70;57.10;;;;;;5104124;28;20016;-39
2021/05/25 00:39:11;;;;;;;3.90;3.50;;;28.60;57.00;;;;;;5104739;28;20774;-39
2021/05/25 00:41:37;;;;;;;3.67;3.37;;;28.60;57.00;;;;;;5104724;28;20032;-43
2021/05/25 00:44:09;;;;;;;3.85;3.55;;;28.60;57.10;;;;;;5104794;28;20063;-39
2021/05/25 00:46:38;;;;;;;4.00;3.70;;;28.60;57.10;;;;;;5104366;28;20024;-40
2021/05/25 00:49:05;;;;;;;3.88;3.58;;;28.60;57.10;;;;;;5104655;28;20040;-43
2021/05/25 00:51:32;;;;;;;3.83;3.53;;;28.60;57.10;;;;;;5104228;28;20055;-40
2021/05/25 00:53:58;;;;;;;3.60;3.30;;;28.60;57.20;;;;;;5104459;28;20107;-40
2021/05/25 00:56:25;;;;;;;4.03;3.72;;;28.50;57.10;;;;;;5104222;28;20083;-40
2021/05/25 00:58:51;;;;;;;4.40;4.00;;;28.50;57.10;;;;;;5104405;28;20038;-39
2021/05/25 01:01:18;;;;;;;3.78;3.47;;;28.60;57.20;;;;;;5104272;28;20054;-39
2021/05/25 01:03:44;;;;;;;5.15;3.45;;;28.50;57.10;;;;;;5104288;28;20089;-40
2021/05/25 01:06:10;;;;;;;4.22;3.50;;;28.50;57.20;;;;;;5101563;28;20032;-39
2021/05/25 01:08:38;;;;;;;3.87;3.57;;;28.50;57.20;;;;;;5100400;28;20054;-45
2021/05/25 01:11:10;;;;;;;4.15;3.85;;;28.50;57.20;;;;;;5101542;28;20046;-39
2021/05/25 01:13:47;;;;;;;4.07;3.78;;;28.50;57.30;;;;;;5098547;28;20025;-40
2021/05/25 01:16:14;;;;;;;3.90;3.60;;;28.40;57.10;;;;;;5101228;28;20063;-40
2021/05/25 01:18:40;;;;;;;;;;;28.40;57.10;;;;;;5099963;28;20036;-40
2021/05/25 01:21:07;;;;;;;3.63;3.33;;;28.40;57.10;;;;;;5096759;28;19912;-40
2021/05/25 01:23:35;;;;;;;4.07;3.78;;;28.40;57.20;;;;;;5101118;28;20043;-40
2021/05/25 01:26:01;;;;;;;4.22;3.85;;;28.40;57.30;;;;;;5102205;28;20024;-40
2021/05/25 01:28:28;;;;;;;4.13;3.80;;;28.30;57.20;;;;;;5100418;28;20043;-42
2021/05/25 01:30:54;;;;;;;4.30;3.90;;;28.30;57.20;;;;;;5098451;28;20052;-40
2021/05/25 01:33:25;;;;;;;3.75;3.45;;;28.30;57.30;;;;;;5103345;28;20035;-42
2021/05/25 01:35:52;;;;;;;3.97;3.67;;;28.30;57.10;;;;;;5097140;28;20036;-40
2021/05/25 01:38:18;;;;;;;4.03;3.70;;;28.30;57.20;;;;;;5103629;28;20087;-40
2021/05/25 01:40:44;;;;;;;4.03;3.72;;;28.20;57.10;;;;;;5103455;28;20049;-40
2021/05/25 01:43:11;;;;;;;4.25;3.83;;;28.20;57.10;;;;;;5086434;28;20120;-39
2021/05/25 01:45:37;;;;;;;3.90;3.60;;;28.20;57.00;;;;;;5082906;28;20033;-39
2021/05/25 01:48:04;;;;;;;3.87;3.57;;;28.20;57.00;;;;;;5082986;28;20035;-40
2021/05/25 01:50:31;;;;;;;3.85;3.55;;;28.20;56.90;;;;;;5082935;28;20289;-39
2021/05/25 01:53:08;;;;;;;4.00;3.70;;;28.20;57.10;;;;;;5081721;28;20029;-39
2021/05/25 01:55:36;;;;;;;3.83;3.53;;;28.20;57.20;;;;;;5083140;28;20033;-40
2021/05/25 01:58:12;;;;;;;3.90;3.60;;;28.10;57.10;;;;;;5093761;28;20024;-41
2021/05/25 02:00:40;;;;;;;4.72;4.32;;;28.10;57.20;;;;;;5103397;28;20039;-40
2021/05/25 02:03:06;;;;;;;3.80;3.50;;;28.10;57.30;;;;;;5103188;28;20081;-40
2021/05/25 02:05:33;;;;;;;4.38;4.07;;;28.10;57.30;;;;;;5103197;28;20039;-41
2021/05/25 02:07:59;;;;;;;4.18;3.88;;;28.10;57.30;;;;;;5103047;28;20119;-40
2021/05/25 02:10:37;;;;;;;4.10;3.80;;;28.00;57.20;;;;;;5102628;28;20120;-40
2021/05/25 02:13:07;;;;;;;4.28;3.97;;;28.00;57.30;;;;;;5102858;28;20039;-40
2021/05/25 02:15:34;;;;;;;4.57;4.20;;;28.00;57.30;;;;;;5102985;28;20032;-41
2021/05/25 02:18:11;;;;;;;5.20;4.07;;;28.00;57.30;;;;;;5089969;28;20027;-41
2021/05/25 02:20:37;;;;;;;;;;;28.00;57.30;;;;;;5083074;28;20060;-41
2021/05/25 02:23:04;;;;;;;4.55;4.15;;;28.00;57.30;;;;;;5091335;28;20462;-41
2021/05/25 02:25:30;;;;;;;4.82;4.43;;;27.90;57.20;;;;;;5100685;28;20024;-40
2021/05/25 02:27:56;;;;;;;4.63;4.22;;;27.90;57.20;;;;;;5100825;28;20524;-41
2021/05/25 02:30:23;;;;;;;4.50;4.10;;;27.90;57.30;;;;;;5090880;28;20036;-40
2021/05/25 02:32:49;;;;;;;4.60;4.25;;;27.90;57.40;;;;;;5094714;28;20084;-40
2021/05/25 02:35:16;;;;;;;4.53;4.13;;;27.90;57.40;;;;;;5101374;28;20024;-40
2021/05/25 02:37:42;;;;;;;4.60;4.20;;;27.80;57.30;;;;;;5097140;28;20272;-43
2021/05/25 02:40:11;;;;;;;4.47;4.07;;;27.80;57.30;;;;;;5102767;28;20040;-41
2021/05/25 02:42:37;;;;;;;4.47;4.07;;;27.80;57.30;;;;;;5096009;28;20273;-40
2021/05/25 02:45:04;;;;;;;4.10;3.80;;;27.80;57.40;;;;;;5105270;28;20040;-40
2021/05/25 02:47:30;;;;;;;4.38;4.03;;;27.70;57.40;;;;;;5103858;28;20031;-40
2021/05/25 02:50:06;;;;;;;4.03;3.73;;;27.70;57.40;;;;;;5098301;28;20043;-40
2021/05/25 02:52:33;;;;;;;5.55;3.85;;;27.70;57.30;;;;;;5099842;28;20044;-40
2021/05/25 02:54:59;;;;;;;4.35;3.95;;;27.70;57.30;;;;;;5099759;28;20024;-42
2021/05/25 02:57:26;;;;;;;5.00;4.50;;;27.70;57.40;;;;;;5104607;28;20039;-40
2021/05/25 02:59:52;;;;;;;4.40;4.00;;;27.70;57.40;;;;;;5100453;28;20477;-42
2021/05/25 03:02:18;;;;;;;4.72;4.32;;;27.70;57.40;;;;;;5098704;28;20099;-40
2021/05/25 03:04:44;;;;;;;4.67;4.07;;;27.70;57.40;;;;;;5095669;28;20040;-40
2021/05/25 03:07:10;;;;;;;4.60;4.20;;;27.60;57.40;;;;;;5099548;28;20050;-42
2021/05/25 03:09:36;;;;;;;4.73;4.33;;;27.60;57.40;;;;;;5102318;28;20028;-43
2021/05/25 03:12:03;;;;;;;4.67;4.33;;;27.60;57.40;;;;;;5102164;28;20028;-40
2021/05/25 03:14:29;;;;;;;4.97;4.57;;;27.60;57.50;;;;;;5102515;28;20108;-41
2021/05/25 03:16:55;;;;;;;5.03;4.63;;;27.60;57.40;;;;;;5098805;28;20111;-40
2021/05/25 03:19:21;;;;;;;5.25;4.78;;;27.60;57.50;;;;;;5101223;28;20039;-42
2021/05/25 03:21:47;;;;;;;5.03;4.63;;;27.50;57.50;;;;;;5102513;28;20032;-41
2021/05/25 03:24:16;;;;;;;4.83;4.43;;;27.50;57.40;;;;;;5102443;28;20040;-40
2021/05/25 03:26:42;;;;;;;5.25;4.85;;;27.50;57.30;;;;;;5102279;28;20027;-44
2021/05/25 03:29:08;;;;;;;5.70;5.20;;;27.50;57.30;;;;;;5102546;28;20032;-41
2021/05/25 03:31:35;;;;;;;5.50;5.10;;;27.50;57.40;;;;;;5100419;28;20056;-41
2021/05/25 03:34:02;;;;;;;;;;;27.40;57.40;;;;;;5082302;28;20036;-40
2021/05/25 03:36:28;;;;;;;5.70;5.20;;;27.40;57.40;;;;;;5084775;28;19909;-40
2021/05/25 03:38:54;;;;;;;6.17;5.67;;;27.40;57.40;;;;;;5103912;28;20040;-40
2021/05/25 03:41:20;;;;;;;5.22;4.82;;;27.40;57.50;;;;;;5101745;28;20087;-41
2021/05/25 03:43:46;;;;;;;6.03;5.53;;;27.30;57.50;;;;;;5101590;28;20028;-40
2021/05/25 03:46:13;;;;;;;5.60;5.10;;;27.30;57.60;;;;;;5102291;28;20062;-40
2021/05/25 03:48:39;;;;;;;5.55;4.88;;;27.30;57.60;;;;;;5097839;28;20039;-40
2021/05/25 03:51:05;;;;;;;5.82;5.22;;;27.30;57.70;;;;;;5093173;28;20047;-41
2021/05/25 03:53:31;;;;;;;5.15;4.65;;;27.20;57.60;;;;;;5093484;28;20028;-41
2021/05/25 03:56:33;;;;;;;5.83;5.30;;;27.20;57.50;;;;;;5095257;28;20036;-40
2021/05/25 03:58:51;;;;;;;5.45;5.00;;;27.20;57.40;;;;;;5095760;28;20032;-40
2021/05/25 04:01:27;;;;;;;5.47;5.05;;;27.20;57.30;;;;;;5097111;28;20047;-41
2021/05/25 04:03:56;;;;;;;5.43;4.93;;;27.20;57.40;;;;;;5095358;28;21552;-40
2021/05/25 04:06:23;;;;;;;5.78;5.28;;;27.20;57.30;;;;;;5098220;28;20033;-41
2021/05/25 04:08:49;;;;;;;6.20;5.70;;;27.20;57.40;;;;;;5099471;28;20078;-42
2021/05/25 04:11:16;;;;;;;6.47;5.90;;;27.10;57.30;;;;;;5102037;28;20054;-42
2021/05/25 04:13:43;;;;;;;6.50;5.90;;;27.10;57.20;;;;;;5103485;28;20020;-40
2021/05/25 04:16:13;;;;;;;6.50;5.95;;;27.10;57.30;;;;;;5103151;28;20127;-40
2021/05/25 04:18:40;;;;;;;6.20;5.63;;;27.10;57.20;;;;;;5104139;28;20027;-40
2021/05/25 04:21:06;;;;;;;;;;;27.10;57.30;;;;;;5103988;28;20052;-40
2021/05/25 04:23:32;;;;;;;6.32;5.80;;;27.10;57.20;;;;;;5104793;28;19923;-41
2021/05/25 04:25:58;;;;;;;6.40;5.80;;;27.00;57.10;;;;;;5086885;28;20024;-39
2021/05/25 04:28:25;;;;;;;6.13;5.63;;;27.10;57.30;;;;;;5104983;28;20032;-45
2021/05/25 04:30:51;;;;;;;6.30;5.77;;;27.10;57.20;;;;;;5105099;28;20045;-40
2021/05/25 04:33:17;;;;;;;6.57;5.97;;;27.00;57.30;;;;;;5105284;28;20031;-40
2021/05/25 04:35:43;;;;;;;6.40;5.80;;;27.00;57.20;;;;;;5104596;28;20032;-43
2021/05/25 04:38:09;;;;;;;6.13;5.57;;;27.00;57.30;;;;;;5104862;28;20141;-40
2021/05/25 04:40:36;;;;;;;6.50;6.00;;;26.90;57.40;;;;;;5104647;28;20031;-40
2021/05/25 04:43:02;;;;;;;6.75;6.18;;;26.90;57.50;;;;;;5104856;28;20434;-40
2021/05/25 04:45:29;;;;;;;6.95;6.32;;;26.90;57.40;;;;;;5104641;28;20051;-40
2021/05/25 04:47:55;;;;;;;7.18;6.57;;;26.80;57.50;;;;;;5103889;28;20024;-40
2021/05/25 04:50:21;;;;;;;6.57;5.97;;;26.80;57.50;;;;;;5104505;28;20043;-41
2021/05/25 04:52:48;;;;;;;6.88;6.28;;;26.80;57.30;;;;;;5104507;28;20115;-41
2021/05/25 04:55:16;;;;;;;6.82;6.22;;;26.80;57.40;;;;;;5104757;28;20028;-41
2021/05/25 04:57:42;;;;;;;6.28;5.78;;;26.80;57.50;;;;;;5104504;28;20035;-41
2021/05/25 05:00:13;;;;;;;7.20;6.55;;;26.80;57.30;;;;;;5104445;28;20024;-40
2021/05/25 05:02:40;;;;;;;6.38;5.78;;;26.80;57.50;;;;;;5104263;28;20128;-40
2021/05/25 05:05:06;;;;;;;6.60;6.00;;;26.80;57.40;;;;;;5102699;28;20035;-40
2021/05/25 05:07:33;;;;;;;6.15;5.65;;;26.70;57.20;;;;;;5104424;28;20028;-40
2021/05/25 05:09:59;;;;;;;7.17;6.00;;;26.70;57.20;;;;;;5104429;28;20068;-42
2021/05/25 05:12:28;;;;;;;6.85;6.25;;;26.70;57.30;;;;;;5079820;28;20031;-40
2021/05/25 05:14:54;;;;;;;6.68;6.07;;;26.70;57.40;;;;;;5104238;28;20017;-40
2021/05/25 05:17:23;;;;;;;6.18;5.68;;;26.70;57.30;;;;;;5104182;28;20473;-41
2021/05/25 05:19:50;;;;;;;6.15;5.65;;;26.70;57.20;;;;;;5103959;28;20175;-44
2021/05/25 05:22:16;;;;;;;6.70;6.00;;;26.60;57.20;;;;;;5104048;28;20028;-41
2021/05/25 05:24:42;;;;;;;6.53;5.93;;;26.60;57.10;;;;;;5104144;28;20127;-41
2021/05/25 05:27:08;;;;;;;6.55;5.95;;;26.60;57.10;;;;;;5104125;28;20050;-40
2021/05/25 05:29:34;;;;;;;6.77;6.10;;;26.60;57.30;;;;;;5104008;28;20084;-40
2021/05/25 05:32:01;;;;;;;6.50;6.00;;;26.50;57.30;;;;;;5096315;28;20028;-40
2021/05/25 05:34:27;;;;;;;7.82;6.57;;;26.50;57.40;;;;;;5103629;28;20028;-40
2021/05/25 05:36:53;;;;;;;6.68;6.07;;;26.50;57.40;;;;;;5103837;28;20032;-40
2021/05/25 05:39:19;;;;;;;7.28;6.57;;;26.50;57.50;;;;;;5103724;28;20039;-40
2021/05/25 05:41:45;;;;;;;6.90;6.30;;;26.50;57.60;;;;;;5103547;28;20022;-38
2021/05/25 05:44:11;;;;;;;6.93;6.40;;;26.40;57.30;;;;;;5103638;28;20040;-40
2021/05/25 05:46:38;;;;;;;7.32;6.63;;;26.40;57.60;;;;;;5103105;28;20032;-40
2021/05/25 05:49:04;;;;;;;7.07;6.47;;;26.40;57.60;;;;;;5103866;28;20083;-40
2021/05/25 05:51:31;;;;;;;6.97;6.38;;;26.40;57.40;;;;;;5103005;28;20040;-41
2021/05/25 05:53:57;;;;;;;7.45;6.75;;;26.40;57.50;;;;;;5103412;28;20032;-40
2021/05/25 05:56:24;;;;;;;6.50;5.90;;;26.40;57.40;;;;;;5103620;28;20025;-40
2021/05/25 05:58:50;;;;;;;6.63;6.07;;;26.40;57.30;;;;;;5101978;28;20024;-40
2021/05/25 06:01:16;;;;;;;7.57;6.57;;;26.30;57.40;;;;;;5103466;28;20274;-41
2021/05/25 06:03:44;;;;;;;6.68;6.07;;;26.30;57.40;;;;;;5102959;28;20090;-41
2021/05/25 06:06:10;;;;;;;;;;;26.30;57.40;;;;;;5103558;28;20039;-42
2021/05/25 06:08:36;;;;;;;6.88;6.18;;;26.20;57.30;;;;;;5103179;28;19904;-40
2021/05/25 06:11:02;;;;;;;7.43;6.82;;;26.20;57.40;;;;;;5103158;28;20036;-40
2021/05/25 06:13:28;;;;;;;7.33;6.63;;;26.20;57.40;;;;;;5102541;28;20032;-40
2021/05/25 06:16:01;;;;;;;6.90;6.30;;;26.20;57.30;;;;;;5103251;28;20094;-40
2021/05/25 06:18:31;;;;;;;6.57;5.97;;;26.20;57.40;;;;;;5103240;28;20036;-41
2021/05/25 06:20:57;;;;;;;6.70;6.10;;;26.10;57.40;;;;;;5103051;28;20024;-41
2021/05/25 06:23:24;;;;;;;6.68;6.07;;;26.10;57.40;;;;;;5099110;28;20524;-40
2021/05/25 06:25:50;;;;;;;6.97;6.40;;;26.10;57.40;;;;;;5103144;28;20092;-43
2021/05/25 06:28:16;;;;;;;7.38;6.68;;;26.10;57.50;;;;;;5102889;28;20035;-40
2021/05/25 06:30:42;;;;;;;7.20;6.30;;;26.10;57.50;;;;;;5103003;28;20021;-42
2021/05/25 06:33:08;;;;;;;6.63;6.03;;;26.10;57.60;;;;;;5102477;28;20051;-40
2021/05/25 06:35:35;;;;;;;7.00;6.33;;;26.10;57.60;;;;;;5102874;28;20036;-40
2021/05/25 06:38:04;;;;;;;7.13;6.43;;;26.00;57.50;;;;;;5102855;28;20507;-40
2021/05/25 06:40:30;;;;;;;7.53;6.82;;;26.00;57.60;;;;;;5091781;28;20024;-40
2021/05/25 06:42:56;;;;;;;7.90;7.10;;;26.00;57.60;;;;;;5082354;28;20031;-42
2021/05/25 06:45:24;;;;;;;7.65;6.95;;;26.00;57.70;;;;;;5082758;28;20032;-44
2021/05/25 06:47:50;;;;;;;7.15;6.55;;;25.90;57.60;;;;;;5082801;28;20389;-40
2021/05/25 06:50:16;;;;;;;7.57;6.88;;;25.90;57.50;;;;;;5099419;28;20028;-40
2021/05/25 06:52:42;;;;;;;7.35;6.68;;;25.90;57.50;;;;;;5102778;28;20024;-41
2021/05/25 06:55:09;;;;;;;7.47;6.78;;;25.90;57.50;;;;;;5102901;28;20670;-40
2021/05/25 06:57:36;;;;;;;7.30;6.70;;;25.90;57.60;;;;;;5102790;28;20039;-40
2021/05/25 07:00:04;;;;;;;7.82;7.13;;;25.90;57.50;;;;;;5093628;28;20062;-42
2021/05/25 07:02:30;;;;;;;7.72;7.03;;;25.80;57.60;;;;;;5091735;28;20028;-40
2021/05/25 07:04:57;;;;;;;7.70;7.00;;;25.80;57.50;;;;;;5102520;28;20608;-40
2021/05/25 07:07:23;;;;;;;7.15;6.43;;;25.80;57.50;;;;;;5102688;28;20029;-40
2021/05/25 07:09:49;;;;;;;7.37;6.77;;;25.80;57.50;;;;;;5102700;28;20035;-40
2021/05/25 07:12:15;;;;;;;7.38;6.78;;;25.80;57.50;;;;;;5103477;28;20067;-40
2021/05/25 07:14:42;;;;;;;8.18;7.28;;;25.80;57.60;;;;;;5105047;28;20088;-41
2021/05/25 07:17:08;;;;;;;7.43;6.73;;;25.70;57.50;;;;;;5105140;28;20034;-42
2021/05/25 07:19:34;;;;;;;7.20;6.60;;;25.70;57.50;;;;;;5093606;28;20048;-44
2021/05/25 07:22:01;;;;;;;7.00;6.40;;;25.70;57.60;;;;;;5086205;28;20652;-41
2021/05/25 07:24:27;;;;;;;6.82;6.22;;;25.70;57.60;;;;;;5101489;28;20036;-42
2021/05/25 07:26:53;;;;;;;7.20;6.53;;;25.70;57.60;;;;;;5106440;28;20024;-40
2021/05/25 07:29:19;;;;;;;7.67;7.00;;;25.60;57.60;;;;;;5104378;28;20077;-40
2021/05/25 07:31:46;;;;;;;7.40;6.70;;;25.60;57.80;;;;;;5106605;28;20024;-40
2021/05/25 07:34:12;;;;;;;8.05;7.35;;;25.60;57.70;;;;;;5106065;28;20101;-43
2021/05/25 07:36:39;;;;;;;7.43;6.72;;;25.60;57.80;;;;;;5106134;28;20028;-40
2021/05/25 07:39:05;;;;;;;7.70;7.10;;;25.60;57.80;;;;;;5106379;28;20392;-40
2021/05/25 07:41:32;;;;;;;7.30;6.70;;;25.60;57.90;;;;;;5106298;28;20036;-42
2021/05/25 07:43:58;;;;;;;7.57;6.97;;;25.60;57.80;;;;;;5105860;28;20119;-41
2021/05/25 07:46:25;;;;;;;7.40;6.68;;;25.50;57.70;;;;;;5106147;28;20766;-42
2021/05/25 07:48:51;;;;;;;7.50;6.85;;;25.50;57.60;;;;;;5105994;28;20040;-40
2021/05/25 07:51:17;;;;;;;8.13;7.30;;;25.50;57.80;;;;;;5105686;28;20052;-41
2021/05/25 07:53:44;;;;;;;7.80;6.95;;;25.50;57.70;;;;;;5105795;28;20228;-41
2021/05/25 07:56:10;;;;;;;7.57;6.78;;;25.50;57.80;;;;;;5105882;28;20017;-41
2021/05/25 07:58:36;;;;;;;7.68;6.97;;;25.50;57.80;;;;;;5105766;28;20050;-40
2021/05/25 08:01:03;;;;;;;7.07;6.47;;;25.40;57.70;;;;;;5105881;28;20024;-41
2021/05/25 08:03:29;;;;;;;7.45;6.75;;;25.40;57.80;;;;;;5105529;28;20028;-41
2021/05/25 08:05:58;;;;;;;7.57;6.87;;;25.40;57.80;;;;;;5105371;28;20032;-41
2021/05/25 08:08:24;;;;;;;8.98;7.25;;;25.40;57.70;;;;;;5105729;28;20081;-40
2021/05/25 08:10:51;;;;;;;7.70;7.00;;;25.40;57.90;;;;;;5103929;28;20061;-40
2021/05/25 08:13:17;;;;;;;8.05;7.25;;;25.40;57.80;;;;;;5105211;28;20575;-40
2021/05/25 08:15:43;;;;;;;7.65;6.95;;;25.30;57.70;;;;;;5105479;28;20032;-40
2021/05/25 08:18:25;;;;;;;8.02;7.22;;;25.30;57.80;;;;;;5105462;28;20024;-44
2021/05/25 08:20:51;;;;;;;7.10;6.50;;;25.30;57.80;;;;;;5085049;28;20017;-41
2021/05/25 08:23:17;;;;;;;7.97;7.28;;;25.30;57.80;;;;;;5084806;28;20024;-40
2021/05/25 08:25:44;;;;;;;7.27;6.67;;;25.30;57.80;;;;;;5098506;28;20715;-40
2021/05/25 08:28:11;;;;;;;7.78;7.00;;;25.20;57.90;;;;;;5105315;28;20070;-42
2021/05/25 08:30:40;;;;;;;8.05;7.28;;;25.20;57.90;;;;;;5105294;28;20043;-40
2021/05/25 08:33:08;;;;;;;8.60;7.82;;;25.20;57.90;;;;;;5089269;28;20029;-40
2021/05/25 08:35:37;;;;;;;7.43;6.82;;;25.20;58.00;;;;;;5084593;28;20127;-40
2021/05/25 08:38:07;;;;;;;7.85;7.15;;;25.20;57.90;;;;;;5084947;28;20051;-40
2021/05/25 08:40:33;;;;;;;8.00;7.30;;;25.20;57.90;;;;;;5096474;28;20036;-40
2021/05/25 08:43:00;;;;;;;7.63;6.93;;;25.10;57.90;;;;;;5104692;28;20031;-40
2021/05/25 08:45:26;;;;;;;8.18;7.15;;;25.20;58.00;;;;;;5104725;28;20036;-41
2021/05/25 08:47:54;;;;;;;8.10;7.40;;;25.10;57.90;;;;;;5103568;28;20109;-41
2021/05/25 08:50:25;;;;;;;7.68;6.97;;;25.10;57.90;;;;;;5104601;28;20435;-41
2021/05/25 08:52:52;;;;;;;8.10;7.40;;;25.10;57.90;;;;;;5103517;28;20043;-40
2021/05/25 08:55:20;;;;;;;7.50;6.90;;;25.10;58.00;;;;;;5104351;28;20062;-40
2021/05/25 08:57:46;;;;;;;7.57;6.88;;;25.00;57.90;;;;;;5104830;28;20020;-41
2021/05/25 09:00:13;;;;;;;7.20;6.50;;;25.00;57.90;;;;;;5094071;28;20028;-41
2021/05/25 09:02:39;;;;;;;7.90;7.20;;;25.00;58.00;;;;;;5095134;28;20020;-42
2021/05/25 09:05:15;;;;;;;7.45;6.75;;;25.00;58.00;;;;;;5104365;28;20036;-45
2021/05/25 09:07:48;;;;;;;7.72;7.03;;;25.00;58.00;;;;;;5104284;28;20032;-40
2021/05/25 09:10:24;;;;;;;7.32;6.68;;;25.00;58.00;;;;;;5104374;28;20092;-41
2021/05/25 09:12:54;;;;;;;7.40;6.70;;;25.00;58.00;;;;;;5103071;28;20052;-41
2021/05/25 09:15:44;;;;;;;7.82;7.13;;;24.90;58.00;;;;;;5103977;28;20087;-40
2021/05/25 09:18:11;;;;;;;7.40;6.70;;;25.00;58.10;;;;;;5103111;28;20077;-43
2021/05/25 09:20:42;;;;;;;7.38;6.78;;;24.90;58.10;;;;;;5102589;28;20481;-42
2021/05/25 09:23:09;;;;;;;7.32;6.63;;;24.90;58.10;;;;;;5104170;28;20078;-41
2021/05/25 09:25:35;;;;;;;;;;;24.90;58.10;;;;;;5103251;28;20036;-40
2021/05/25 09:28:14;;;;;;;7.85;7.05;;;24.80;58.10;;;;;;5102722;28;19914;-40
2021/05/25 09:30:42;;;;;;;7.78;7.07;;;24.80;58.10;;;;;;5104222;28;20043;-41
2021/05/25 09:33:09;;;;;;;7.68;6.97;;;24.80;58.10;;;;;;5103572;28;20106;-41
2021/05/25 09:35:40;;;;;;;8.05;7.18;;;24.80;58.20;;;;;;5102302;28;20123;-41
2021/05/25 09:38:08;;;;;;;7.53;6.88;;;24.80;58.20;;;;;;5103930;28;20077;-41
2021/05/25 09:40:35;;;;;;;7.95;7.18;;;24.80;58.30;;;;;;5104082;28;20020;-41
2021/05/25 09:43:17;;;;;;;7.80;7.10;;;24.80;58.20;;;;;;5103882;28;20039;-41
2021/05/25 09:46:13;;;;;;;7.05;6.47;;;24.70;58.20;;;;;;5103696;28;20110;-40
2021/05/25 09:48:42;;;;;;;7.65;6.95;;;24.70;58.80;;;;;;5103123;28;20519;-41
2021/05/25 09:51:28;;;;;;;7.85;7.13;;;24.70;58.30;;;;;;5103426;28;20413;-41
2021/05/25 09:53:55;;;;;;;7.53;6.82;;;24.70;58.30;;;;;;5103723;28;20027;-41
2021/05/25 09:56:29;;;;;;;7.70;7.00;;;24.70;58.30;;;;;;5102085;28;20047;-40
2021/05/25 09:58:56;;;;;;;7.25;6.65;;;24.60;58.20;;;;;;5103673;28;20436;-41
2021/05/25 10:01:34;;;;;;;7.55;6.90;;;24.60;58.30;;;;;;5103701;28;20028;-41
2021/05/25 10:04:13;;;;;;;8.07;7.38;;;24.60;58.30;;;;;;5082931;28;20496;-41
2021/05/25 10:06:48;;;;;;;7.53;6.82;;;24.60;58.30;;;;;;5082845;28;20044;-41
2021/05/25 10:09:15;;;;;;;7.50;6.80;;;24.60;58.40;;;;;;5083767;28;20035;-41
2021/05/25 10:11:45;;;;;;;7.60;6.90;;;24.60;58.40;;;;;;5103374;28;20039;-41
2021/05/25 10:14:11;;;;;;;7.85;7.15;;;24.60;58.40;;;;;;5103158;28;20024;-41
2021/05/25 10:16:40;;;;;;;7.88;7.18;;;24.50;58.40;;;;;;5103127;28;20036;-40
2021/05/25 10:21:39;;;;;;;7.35;6.75;;;24.50;58.40;;;;;;5102700;28;20039;-41
2021/05/25 10:24:06;;;;;;;7.80;7.10;;;24.50;58.40;;;;;;5100909;28;20036;-42
2021/05/25 10:26:34;;;;;;;8.00;7.30;;;24.50;58.50;;;;;;5102833;28;20025;-43
2021/05/25 10:29:03;;;;;;;8.23;7.43;;;24.50;58.40;;;;;;5101640;28;20032;-40
2021/05/25 10:31:37;;;;;;;7.93;7.22;;;24.50;58.40;;;;;;5099938;28;20062;-40
2021/05/25 10:34:15;;;;;;;7.82;7.13;;;24.50;58.50;;;;;;5103134;28;20144;-44
2021/05/25 10:37:01;;;;;;;7.93;7.22;;;24.40;58.40;;;;;;5102469;28;20020;-41
2021/05/25 10:39:36;;;;;;;8.20;7.30;;;24.40;58.50;;;;;;5103203;28;20063;-41
2021/05/25 10:42:21;;;;;;;7.65;6.95;;;24.40;58.50;;;;;;5102904;28;20032;-41
2021/05/25 10:45:12;;;;;;;7.78;7.07;;;24.40;58.50;;;;;;5102703;28;20055;-41
2021/05/25 10:48:03;;;;;;;8.00;7.20;;;24.30;58.50;;;;;;5107005;28;20028;-40
2021/05/25 10:50:33;;;;;;;7.87;7.00;;;24.30;58.50;;;;;;5106560;28;20067;-39
2021/05/25 10:52:59;;;;;;;7.55;6.70;;;24.30;58.60;;;;;;5106983;28;20062;-39
2021/05/25 10:55:32;;;;;;;7.40;6.70;;;24.30;58.50;;;;;;5107114;28;20101;-40
2021/05/25 10:57:58;;;;;;;7.07;6.40;;;24.30;58.60;;;;;;5106968;28;20035;-40
2021/05/25 11:00:29;;;;;;;7.33;6.70;;;24.30;58.70;;;;;;5094827;28;20028;-40
2021/05/25 11:02:57;;;;;;;7.72;7.03;;;24.30;58.60;;;;;;5086841;28;20385;-40
2021/05/25 11:05:34;;;;;;;;;;;24.30;58.60;;;;;;5087104;28;20064;-39
2021/05/25 11:08:12;;;;;;;7.15;6.55;;;24.30;58.60;;;;;;5086417;28;19904;-40
2021/05/25 11:10:45;;;;;;;7.85;7.15;;;24.20;58.60;;;;;;5098620;28;20020;-40
2021/05/25 11:13:18;;;;;;;8.35;7.55;;;24.20;58.80;;;;;;5106927;28;20035;-39
2021/05/25 11:16:30;;;;;;;7.95;7.15;;;24.20;58.70;;;;;;5104749;28;20111;-39
2021/05/25 11:19:20;;;;;;;8.57;7.85;;;24.10;58.70;;;;;;5052110;28;20103;-39
2021/05/25 11:24:47;;;;;;;7.95;7.25;;;24.10;58.70;;;;;;5043378;28;20048;-40
2021/05/25 11:27:43;;;;;;;7.93;7.20;;;24.10;58.70;;;;;;5043090;28;20029;-40
2021/05/25 11:30:30;;;;;;;7.57;6.88;;;24.10;58.80;;;;;;5053126;28;20040;-39
2021/05/25 11:32:57;;;;;;;7.88;7.18;;;24.10;58.70;;;;;;5063159;28;20203;-43
2021/05/25 11:35:24;;;;;;;7.55;6.78;;;24.10;58.70;;;;;;5063041;28;20615;-40
2021/05/25 11:37:53;;;;;;;7.60;6.90;;;24.10;58.80;;;;;;5062901;28;20036;-41
2021/05/25 11:40:27;;;;;;;7.93;7.13;;;24.10;58.80;;;;;;5063259;28;20040;-40
2021/05/25 11:42:55;;;;;;;7.53;6.82;;;24.00;58.80;;;;;;5063088;28;20029;-40
2021/05/25 11:45:25;;;;;;;7.40;6.40;;;24.00;58.80;;;;;;5046208;28;20037;-41
2021/05/25 11:48:01;;;;;;;7.53;6.82;;;24.00;58.80;;;;;;5062647;28;20605;-41
2021/05/25 11:50:28;;;;;;;7.85;7.15;;;24.00;58.80;;;;;;5062661;28;20064;-41
2021/05/25 11:52:56;;;;;;;7.78;7.00;;;24.00;58.80;;;;;;5086927;28;20043;-40
2021/05/25 11:55:23;;;;;;;7.80;7.13;;;24.00;58.80;;;;;;5105889;28;20032;-41
2021/05/25 11:57:50;;;;;;;7.50;6.80;;;24.00;58.90;;;;;;5105503;28;20441;-41
2021/05/25 12:00:18;;;;;;;7.78;7.07;;;24.00;58.90;;;;;;5094590;28;20080;-42
2021/05/25 12:02:46;;;;;;;7.72;7.03;;;24.00;58.90;;;;;;5095730;28;20024;-41
2021/05/25 12:05:15;;;;;;;7.82;7.13;;;24.00;58.90;;;;;;5105325;28;20042;-41
2021/05/25 12:07:45;;;;;;;7.65;6.95;;;23.90;58.90;;;;;;5105637;28;20050;-41
2021/05/25 12:10:13;;;;;;;7.22;6.63;;;23.90;58.80;;;;;;5103900;28;20028;-40
2021/05/25 12:12:42;;;;;;;7.30;6.60;;;24.00;58.90;;;;;;5104504;28;20046;-40
2021/05/25 12:15:15;;;;;;;7.85;7.20;;;23.90;58.80;;;;;;5104983;28;20036;-40
2021/05/25 12:17:43;;;;;;;7.65;6.95;;;23.90;58.90;;;;;;5105380;28;20039;-41
2021/05/25 12:20:15;;;;;;;7.35;6.65;;;23.90;59.40;;;;;;5105373;28;20020;-40
2021/05/25 12:22:42;;;;;;;7.55;6.82;;;23.90;58.90;;;;;;5103679;28;20088;-40
2021/05/25 12:25:22;;;;;;;8.23;6.70;;;23.90;58.90;;;;;;5104896;28;20032;-41
2021/05/25 12:27:50;;;;;;;7.28;6.63;;;23.90;59.00;;;;;;5104622;28;20040;-40
2021/05/25 12:30:17;;;;;;;7.22;6.55;;;23.90;58.90;;;;;;5086781;28;20092;-40
2021/05/25 12:32:43;;;;;;;;;;;23.90;58.90;;;;;;5096733;28;20217;-40
2021/05/25 12:35:11;;;;;;;6.80;6.15;;;23.90;58.90;;;;;;5105020;28;19908;-44
2021/05/25 12:37:37;;;;;;;7.28;6.57;;;23.90;58.90;;;;;;5103381;28;20028;-41
2021/05/25 12:40:11;;;;;;;6.70;6.10;;;23.90;58.90;;;;;;5103817;28;20130;-40
2021/05/25 12:42:42;;;;;;;6.47;5.88;;;23.90;59.10;;;;;;5105017;28;20038;-43
2021/05/25 12:45:15;;;;;;;7.07;6.43;;;23.90;59.10;;;;;;5104132;28;20036;-42
2021/05/25 12:47:53;;;;;;;7.10;6.45;;;23.90;59.10;;;;;;5104915;28;20086;-40
2021/05/25 12:50:34;;;;;;;7.28;6.57;;;23.90;59.20;;;;;;5104445;28;20055;-40
2021/05/25 12:53:09;;;;;;;7.22;6.53;;;23.90;59.20;;;;;;5104560;28;20028;-40
2021/05/25 12:55:41;;;;;;;6.70;6.10;;;23.90;59.10;;;;;;5104309;28;20032;-41
2021/05/25 12:58:08;;;;;;;7.03;6.43;;;23.90;59.10;;;;;;5103094;28;20027;-40
2021/05/25 13:00:41;;;;;;;7.15;6.55;;;23.90;59.20;;;;;;5104341;28;20048;-40